METAR Data
IDs: Format: Raw Decoded Include TAF

Data at: 1102 UTC 22 Jan 2022

KC99 221055Z AUTO 21006KT 10SM SCT002 M13/M15 A3017 RMK AO2
KC99 221035Z AUTO 20007KT 4SM BKN002 M13/M15 A3016 RMK AO2
KC99 221015Z AUTO 20007KT 2SM OVC002 M13/M15 A3017 RMK AO2
KC99 220955Z AUTO 21005KT 2SM OVC002 M13/M14 A3019 RMK AO2
KC99 220935Z AUTO 21006KT 1 1/4SM OVC002 M13/M14 A3019 RMK AO2
KC99 220915Z AUTO 19004KT 2SM OVC002 M12/M14 A3020 RMK AO2
KC99 220855Z AUTO 22003KT 1 3/4SM OVC002 M13/M14 A3020 RMK AO2 VIS 3/4V4
KC99 220835Z AUTO 19004KT 2 1/2SM OVC002 M13/M14 A3019 RMK AO2 VIS 1V4
KC99 220815Z AUTO 17004KT 1SM OVC002 M12/M14 A3019 RMK AO2
KC99 220755Z AUTO 19005KT 3/4SM OVC002 M12/M14 A3020 RMK AO2
KC99 220735Z AUTO 00000KT 1 1/4SM OVC002 M12/M13 A3020 RMK AO2
KC99 220715Z AUTO 00000KT 1 1/2SM OVC002 M12/M13 A3020 RMK AO2 VIS 1/2V4
KC99 220655Z AUTO 16004KT 1 3/4SM OVC002 M12/M13 A3020 RMK AO2 VIS 1V4
KC99 220635Z AUTO 00000KT 5SM BKN004 OVC009 M12/M14 A3021 RMK AO2
KC99 220615Z AUTO 12004KT 5SM OVC009 M13/M14 A3021 RMK AO2
KC99 220555Z AUTO 11007KT 7SM BKN009 BKN015 OVC022 M13/M14 A3021 RMK AO2
KC99 220535Z AUTO 11007KT 7SM SCT006 SCT015 OVC022 M13/M15 A3021 RMK AO2
KC99 220515Z AUTO 11004KT 5SM SCT002 SCT011 OVC020 M13/M15 A3021 RMK AO2
KC99 220455Z AUTO 10007KT 2SM BKN002 OVC010 M13/M14 A3021 RMK AO2
KC99 220435Z AUTO 08004KT 1 1/2SM SCT002 SCT006 OVC012 M12/M13 A3021 RMK AO2
KC99 220415Z AUTO 07004KT 1 1/4SM BKN002 BKN006 OVC013 M12/M13 A3021 RMK AO2
KC99 220355Z AUTO 08005KT 1 1/2SM OVC002 M12/M13 A3021 RMK AO2
KC99 220335Z AUTO 08004KT 3/4SM OVC004 M11/M13 A3021 RMK AO2
KC99 220315Z AUTO 11003KT 1/2SM OVC004 M11/M12 A3021 RMK AO2
KC99 220255Z AUTO 09003KT 3/4SM OVC002 M11/M12 A3021 RMK AO2
KC99 220235Z AUTO 00000KT 1SM OVC002 M11/M12 A3021 RMK AO2
KC99 220215Z AUTO 06003KT 3/4SM OVC002 M11/M12 A3020 RMK AO2
KC99 220155Z AUTO 02003KT 1/2SM OVC002 M11/M12 A3020 RMK AO2
KC99 220135Z AUTO 00000KT 3/4SM OVC002 M11/M12 A3019 RMK AO2
KC99 220115Z AUTO 05006KT 3/4SM OVC002 M11/M12 A3018 RMK AO2
KC99 220055Z AUTO 04005KT 1/2SM OVC002 M11/M12 A3017 RMK AO2
KC99 220035Z AUTO 36005KT 3/4SM OVC002 M11/M12 A3016 RMK AO2
KC99 220015Z AUTO 36006KT 1/2SM OVC002 M11/M11 A3015 RMK AO2
KC99 212355Z AUTO 06007KT 010V140 1/4SM OVC002 M10/M11 A3014 RMK AO2
KC99 212335Z AUTO 04004KT 1/4SM OVC002 M10/M11 A3014 RMK AO2
KC99 212315Z AUTO 09006KT 1/2SM OVC002 M10/M11 A3013 RMK AO2
KC99 212255Z AUTO 34004KT 1/2SM BKN004 OVC007 M10/M11 A3012 RMK AO2
KC99 212235Z AUTO 03006KT 1/2SM OVC004 M10/M11 A3012 RMK AO2
KC99 212215Z AUTO 36005KT 1/4SM OVC003 M10/M11 A3011 RMK AO2
KC99 212155Z AUTO 07006KT 1/4SM OVC002 M09/M10 A3011 RMK AO2
KC99 212135Z AUTO 23004KT 1/4SM OVC002 M09/M10 A3010 RMK AO2
KC99 212115Z AUTO 11004KT 1/2SM OVC002 M09/M10 A3009 RMK AO2
KC99 212055Z AUTO 00000KT 1/4SM OVC002 M09/M10 A3008 RMK AO2
KC99 212035Z AUTO 13004KT 1SM OVC002 M08/M10 A3008 RMK AO2
KC99 212015Z AUTO 14003KT 3/4SM OVC002 M09/M10 A3007 RMK AO2
KC99 211955Z AUTO 15003KT 1/2SM OVC004 M09/M10 A3007 RMK AO2
KC99 211935Z AUTO 00000KT 3/4SM OVC004 M08/M09 A3008 RMK AO2
KC99 211915Z AUTO 00000KT 3/4SM OVC004 M08/M10 A3008 RMK AO2
KC99 211855Z AUTO 00000KT 1 3/4SM OVC008 M08/M10 A3009 RMK AO2
KC99 211835Z AUTO 00000KT 2 1/2SM BKN008 BKN012 OVC045 M08/M10 A3009 RMK AO2
KC99 211815Z AUTO 35004KT 3SM OVC043 M08/M10 A3010 RMK AO2
KC99 211755Z AUTO 33006KT 7SM OVC039 M08/M11 A3010 RMK AO2
KC99 211735Z AUTO 32007KT 290V010 10SM BKN036 OVC045 M08/M11 A3010 RMK AO2
KC99 211715Z AUTO 33007KT 290V010 10SM OVC045 M08/M11 A3009 RMK AO2
KC99 211655Z AUTO 31009G14KT 280V350 10SM OVC043 M08/M11 A3008 RMK AO2
KC99 211635Z AUTO 31010KT 10SM OVC046 M08/M11 A3007 RMK AO2
KC99 211615Z AUTO 32010G16KT 10SM OVC048 M09/M11 A3006 RMK AO2
KC99 211555Z AUTO 30009G15KT 10SM SCT008 OVC046 M09/M10 A3006 RMK AO2
KC99 211535Z AUTO 31010G17KT 5SM BKN010 OVC048 M10/M11 A3004 RMK AO2
KC99 211515Z AUTO 30009G16KT 10SM OVC008 M10/M11 A3006 RMK AO2
KC99 211455Z AUTO 31009G16KT 10SM OVC008 M10/M11 A3005 RMK AO2
KC99 211435Z AUTO 30009G15KT 280V340 7SM OVC008 M10/M11 A3005 RMK AO2
KC99 211415Z AUTO 30009G20KT 5SM OVC008 M10/M11 A3003 RMK AO2
KC99 211355Z AUTO 31013G21KT 2 1/2SM OVC008 M10/M11 A3002 RMK AO2
KC99 211335Z AUTO 31016G22KT 1 3/4SM OVC008 M09/M10 A3000 RMK AO2
KC99 211315Z AUTO 32013G25KT 2SM OVC008 M09/M10 A2998 RMK AO2
KC99 211255Z AUTO 31014G27KT 2SM OVC011 M08/M10 A2996 RMK AO2
KC99 211235Z AUTO 30011G18KT 2 1/2SM OVC009 M08/M10 A2997 RMK AO2
KC99 211215Z AUTO 31011G19KT 3SM OVC009 M08/M11 A2996 RMK AO2
KC99 211155Z AUTO 28004G14KT 2 1/2SM OVC009 M09/M11 A2996 RMK AO2
KC99 211135Z AUTO 31012G33KT 280V340 4SM BKN007 OVC014 M09/M11 A2996 RMK AO2
KC99 211115Z AUTO 29019G40KT 7SM SCT009 BKN014 OVC110 M08/M11 A2993 RMK AO2
KC99 211055Z AUTO 29010G22KT 250V340 10SM SCT014 SCT038 OVC100 M07/M10 A2995 RMK AO2
KC99 211035Z AUTO 30015G30KT 10SM SCT009 OVC100 M07/M10 A2996 RMK AO2
KC99 211011Z AUTO 30027G44KT 10SM OVC100 M08/M11 A2992 RMK AO2
KC99 210955Z AUTO 30028G42KT 10SM OVC100 M08/M12 A2990 RMK AO2
KC99 210929Z AUTO 30030G44KT 10SM SCT110 M09/M12 A2991 RMK AO2
KC99 210915Z AUTO 30030G46KT 7SM SCT090 OVC120 M08/M11 A2991 RMK AO2
KC99 210855Z AUTO 30027G43KT 7SM SCT090 BKN120 M08/M11 A2993 RMK AO2
KC99 210835Z AUTO 30023G36KT 7SM SCT065 SCT120 M08/M11 A2994 RMK AO2
KC99 210815Z AUTO 30022G37KT 10SM SCT065 BKN110 M07/M11 A2995 RMK AO2
KC99 210755Z AUTO 30026G39KT 10SM SCT065 SCT080 BKN110 M07/M11 A2995 RMK AO2
KC99 210735Z AUTO 30021G37KT 10SM BKN080 BKN120 M08/M11 A2995 RMK AO2
KC99 210715Z AUTO 30021G38KT 10SM SCT080 BKN110 M08/M11 A2996 RMK AO2
KC99 210655Z AUTO 30025G37KT 10SM CLR M09/M10 A2996 RMK AO2
KC99 210635Z AUTO 30020G35KT 10SM SCT006 M09/M11 A2998 RMK AO2
KC99 210615Z AUTO 30022G33KT 10SM CLR M08/M11 A2999 RMK AO2
KC99 210555Z AUTO 30023G41KT 10SM CLR M08/M11 A2999 RMK AO2
KC99 210535Z AUTO 30022G36KT 10SM CLR M08/M11 A2999 RMK AO2
KC99 210515Z AUTO 30020G41KT 10SM CLR M08/M12 A2999 RMK AO2
KC99 210455Z AUTO 30024G40KT 10SM CLR M08/M12 A2997 RMK AO2
KC99 210435Z AUTO 30024G39KT 10SM SCT060 M10/M13 A2999 RMK AO2
KC99 210415Z AUTO 30022G38KT 10SM CLR M10/M13 A2999 RMK AO2
KC99 210355Z AUTO 31022G34KT 10SM SCT005 BKN060 M10/M14 A3000 RMK AO2
KC99 210335Z AUTO 30023G37KT 10SM BKN005 M10/M14 A3000 RMK AO2
KC99 210315Z AUTO 30027G42KT 10SM SCT005 BKN070 M10/M13 A3000 RMK AO2
KC99 210255Z AUTO 30025G40KT 10SM BKN070 M10/M15 A3000 RMK AO2
KC99 210235Z AUTO 30025G42KT 10SM SCT070 M10/M16 A3001 RMK AO2
KC99 210215Z AUTO 30028G43KT 10SM CLR M10/M17 A3002 RMK AO2
KC99 210155Z AUTO 31020G36KT 10SM CLR M10/M16 A3003 RMK AO2
KC99 210135Z AUTO 31024G38KT 10SM CLR M10/M17 A3004 RMK AO2
KC99 210115Z AUTO 30026G36KT 10SM CLR M10/M18 A3003 RMK AO2
KC99 210055Z AUTO 30026G35KT 10SM CLR M10/M18 A3004 RMK AO2
KC99 210035Z AUTO 30029G39KT 10SM CLR M10/M19 A3003 RMK AO2
KC99 210015Z AUTO 30025G45KT 10SM CLR M10/M19 A3003 RMK AO2
KC99 202355Z AUTO 30026G41KT 10SM CLR M10/M19 A3004 RMK AO2
KC99 202335Z AUTO 30026G36KT 10SM CLR M10/M18 A3004 RMK AO2
KC99 202315Z AUTO 30022G35KT 10SM CLR M10/M18 A3006 RMK AO2